Costa Pacifica — ICJA — position and weather

sailwx.info

Track history (hours):
 
Tides and Currents Weather Stations Pressure Air Temp Water Temp Dewpoint Dewpoint Depression Visibility Wind Speed Wind Dir Waves Ship Positions

Costa Pacifica

Last reported at 2019-May-20 16:31 UTC. Time now 2019-May-20 17:00 UTC.
Position N 28°29' W 016°10'.

Length 290 m; draft 8.3 m.

Type: Ship. MMSI: 247258100.

Date/timePositionNaut miles runAvg speedWind from/ knotsBaromVisibWave heightAir tempDewpointWater temp
2019-May-20 16:31N 28°29' W 016°10'4 8.9
2019-May-20 16:01N 28°28' W 016°15'0 0.1
2019-May-20 15:31N 28°28' W 016°15'0 0.0
2019-May-20 15:00N 28°28' W 016°15'0 0.0
2019-May-20 14:30N 28°28' W 016°15'0 0.0
2019-May-20 14:00N 28°28' W 016°15'0 0.0
2019-May-20 13:31N 28°28' W 016°15'0 0.0
2019-May-20 13:01N 28°28' W 016°15'0 0.0
2019-May-20 12:31N 28°28' W 016°15'0 0.0
2019-May-20 12:01N 28°28' W 016°15'0 0.0
2019-May-20 11:31N 28°28' W 016°15'0 0.0
2019-May-20 11:00N 28°28' W 016°15'0 0.0
2019-May-20 10:31N 28°28' W 016°15'0 0.0
2019-May-20 10:01N 28°28' W 016°15'0 0.0
2019-May-20 09:30N 28°28' W 016°15'0 0.0
2019-May-20 09:00N 28°28' W 016°15'0 0.0
2019-May-20 08:31N 28°28' W 016°15'0 0.0
2019-May-20 08:00N 28°28' W 016°15'0 0.0
2019-May-20 07:31N 28°28' W 016°15'0 0.0
2019-May-20 07:01N 28°28' W 016°15'1 1.4
2019-May-20 06:30N 28°29' W 016°14'2 4.0
2019-May-20 06:00N 28°28' W 016°12'5 9.7
2019-May-20 05:31N 28°25' W 016°08'510.6
2019-May-20 05:00N 28°28' W 016°02'613.0
2019-May-20 04:31N 28°32' W 015°57'612.9
2019-May-20 04:00N 28°36' W 015°51'712.8
2019-May-20 03:27N 28°39' W 015°44'713.0
2019-May-20 02:54N 28°40' W 015°36'712.7
2019-May-20 02:21N 28°41' W 015°28'512.8
2019-May-20 01:58N 28°41' W 015°22'613.2
2019-May-20 01:29N 28°43' W 015°15'712.7
2019-May-20 00:55N 28°44' W 015°07'512.0
2019-May-20 00:30N 28°43' W 015°02'4913.0
2019-May-19 20:43N 28°48' W 014°06'913.6
2019-May-19 20:04N 28°49' W 013°56'313.5
2019-May-19 19:49N 28°49' W 013°52'413.7
2019-May-19 19:30N 28°48' W 013°47'713.9
2019-May-19 19:00N 28°51' W 013°40'714.1
2019-May-19 18:30N 28°55' W 013°33'4 7.1
2019-May-19 18:00N 28°58' W 013°32'0 0.1
2019-May-19 17:29N 28°58' W 013°32'0 0.0
2019-May-19 17:00N 28°58' W 013°32'0 0.0
2019-May-19 16:30N 28°58' W 013°32'0 0.0
2019-May-19 16:00N 28°58' W 013°32'0 0.0
2019-May-19 15:30N 28°58' W 013°32'0 0.0
2019-May-19 15:00N 28°58' W 013°32'0 0.0
2019-May-19 14:30N 28°58' W 013°32'0 0.0
2019-May-19 14:00N 28°58' W 013°32'0 0.0
2019-May-19 13:29N 28°58' W 013°32'0 0.0
2019-May-19 13:00N 28°58' W 013°32'0 0.0
2019-May-19 12:30N 28°58' W 013°32'0 0.0
2019-May-19 12:00N 28°58' W 013°32'0 0.0
2019-May-19 11:30N 28°58' W 013°32'1 2.4
2019-May-19 11:00N 28°57' W 013°32'4 8.9
2019-May-19 10:30N 28°53' W 013°29'918.6
2019-May-19 10:00N 29°00' W 013°21'918.9
2019-May-19 09:30N 29°07' W 013°14'66019.1
2019-May-17 22:58N 36°18' W 003°20'56018.4
2019-May-16 16:29N 43°06' E 004°58'1019.0
2019-May-16 15:58N 43°14' E 005°07'817.8
2019-May-16 15:30N 43°19' E 005°15'3 0.3
2019-May-16 05:43N 43°21' E 005°19'1 3.8
2019-May-16 05:27N 43°21' E 005°18'4 9.5
2019-May-16 05:00N 43°18' E 005°14'4 8.2
2019-May-16 04:30N 43°14' E 005°15'6813.7
2019-May-15 23:35N 43°03' E 006°46'114.1
2019-May-15 23:30N 43°04' E 006°48'814.1
2019-May-15 22:57N 43°08' E 006°56'614.1
2019-May-15 22:30N 43°12' E 007°03'714.2
2019-May-15 22:00N 43°16' E 007°11'714.1
2019-May-15 21:30N 43°21' E 007°18'714.0
2019-May-15 21:01N 43°25' E 007°26'714.2
2019-May-15 20:31N 43°29' E 007°34'714.7
2019-May-15 20:01N 43°33' E 007°42'714.7
2019-May-15 19:30N 43°37' E 007°51'714.4
2019-May-15 19:00N 43°41' E 007°59'714.3
2019-May-15 18:31N 43°46' E 008°06'714.2
2019-May-15 18:00N 43°51' E 008°14'713.8
2019-May-15 17:30N 43°56' E 008°20'713.8
2019-May-15 17:00N 44°02' E 008°25'713.8
2019-May-15 16:30N 44°08' E 008°29'713.3
2019-May-15 16:00N 44°14' E 008°32'510.0
2019-May-15 15:30N 44°19' E 008°30'1 1.4
2019-May-15 15:00N 44°19' E 008°30'0 0.0
2019-May-15 14:30N 44°19' E 008°30'0 0.0
2019-May-15 14:00N 44°19' E 008°30'0 0.0
2019-May-15 13:30N 44°19' E 008°30'0 0.0
2019-May-15 12:57N 44°19' E 008°30'0 0.0
2019-May-15 12:29N 44°19' E 008°30'0 0.0
2019-May-15 11:59N 44°19' E 008°30'0 0.0
2019-May-15 11:29N 44°19' E 008°30'0 0.0
2019-May-15 10:59N 44°19' E 008°30'0 0.0
2019-May-15 10:28N 44°19' E 008°30'0 0.0
2019-May-15 09:58N 44°19' E 008°30'0 0.0
2019-May-15 09:28N 44°19' E 008°30'0 0.0
2019-May-15 08:58N 44°19' E 008°30'0 0.0
2019-May-15 08:28N 44°19' E 008°30'0 0.0
2019-May-15 08:00N 44°19' E 008°30'0 0.0
2019-May-15 07:30N 44°19' E 008°30'0 0.0
2019-May-15 07:00N 44°19' E 008°30'0 0.0
2019-May-15 06:30N 44°19' E 008°30'0 0.0
2019-May-15 05:59N 44°19' E 008°30'0 0.4
2019-May-15 05:30N 44°19' E 008°30'2 3.9
2019-May-15 05:00N 44°18' E 008°32'816.0
2019-May-15 04:30N 44°11' E 008°38'1019.5
2019-May-15 04:00N 44°03' E 008°45'1020.3
2019-May-15 03:30N 43°55' E 008°53'1121.7
2019-May-15 03:00N 43°45' E 009°01'1121.4
2019-May-15 02:31N 43°36' E 009°09'1121.7
2019-May-15 02:00N 43°27' E 009°17'1121.5
2019-May-15 01:30N 43°18' E 009°25'1121.3
2019-May-15 01:00N 43°09' E 009°33'1121.6
2019-May-15 00:30N 42°59' E 009°39'1020.8
2019-May-15 00:00N 42°51' E 009°47'2421.0
2019-May-14 22:53N 42°38' E 010°14'1121.3
2019-May-14 22:23N 42°31' E 010°25'821.4
2019-May-14 22:00N 42°26' E 010°33'48 2.4
2019-May-14 02:11N 41°39' E 010°19'420.0
2019-May-14 02:00N 41°38' E 010°14'36219.6
2019-May-13 07:33N 38°53' E 003°11'221.0
2019-May-13 07:27N 38°52' E 003°09'26521.1
2019-May-12 18:51N 36°36' W 001°39'1921.1
2019-May-12 17:56N 36°26' W 001°60'1320.8
2019-May-12 17:17N 36°22' W 002°16'1120.5
2019-May-12 16:46N 36°21' W 002°29'413.5
2019-May-12 16:29N 36°21' W 002°34'4 7.9
2019-May-12 16:00N 36°21' W 002°38'1019.8
2019-May-12 15:30N 36°23' W 002°50'1120.5
2019-May-12 14:59N 36°26' W 003°03'1021.0
2019-May-12 14:30N 36°27' W 003°15'23411.7
2019-May-11 18:30N 35°27' W 007°55'1819.1
2019-May-11 17:33N 35°21' W 008°15'116.4
2019-May-11 17:30N 35°21' W 008°16'918.5
2019-May-11 17:00N 35°17' W 008°27'1218.5
2019-May-11 16:21N 35°13' W 008°41'819.1
2019-May-11 15:57N 35°10' W 008°49'1018.8
2019-May-11 15:26N 35°07' W 009°00'818.3
2019-May-11 15:00N 35°04' W 009°10'1018.4
2019-May-11 14:29N 35°01' W 009°20'918.4
2019-May-11 14:01N 34°57' W 009°30'1518.2
2019-May-11 13:12N 34°52' W 009°47'317.9
2019-May-11 13:00N 34°51' W 009°51'1117.6
2019-May-11 12:24N 34°47' W 010°03'3217.5
2019-May-11 10:34N 34°36' W 010°40'117.5
2019-May-11 10:30N 34°35' W 010°41'  
Track history (hours):
 
Tides and Currents Weather Stations Pressure Air Temp Water Temp Dewpoint Dewpoint Depression Visibility Wind Speed Wind Dir Waves Ship Positions

Costa Pacifica

Last reported at 2019-May-20 16:31 UTC. Time now 2019-May-20 17:00 UTC.
Position N 28°29' W 016°10'.

Length 290 m; draft 8.3 m.

Type: Ship. MMSI: 247258100.

Date/timePositionNaut miles runAvg speedWind from/ knotsBaromVisibWave heightAir tempDewpointWater temp
2019-May-20 16:31N 28°29' W 016°10'4 8.9
2019-May-20 16:01N 28°28' W 016°15'0 0.1
2019-May-20 15:31N 28°28' W 016°15'0 0.0
2019-May-20 15:00N 28°28' W 016°15'0 0.0
2019-May-20 14:30N 28°28' W 016°15'0 0.0
2019-May-20 14:00N 28°28' W 016°15'0 0.0
2019-May-20 13:31N 28°28' W 016°15'0 0.0
2019-May-20 13:01N 28°28' W 016°15'0 0.0
2019-May-20 12:31N 28°28' W 016°15'0 0.0
2019-May-20 12:01N 28°28' W 016°15'0 0.0
2019-May-20 11:31N 28°28' W 016°15'0 0.0
2019-May-20 11:00N 28°28' W 016°15'0 0.0
2019-May-20 10:31N 28°28' W 016°15'0 0.0
2019-May-20 10:01N 28°28' W 016°15'0 0.0
2019-May-20 09:30N 28°28' W 016°15'0 0.0
2019-May-20 09:00N 28°28' W 016°15'0 0.0
2019-May-20 08:31N 28°28' W 016°15'0 0.0
2019-May-20 08:00N 28°28' W 016°15'0 0.0
2019-May-20 07:31N 28°28' W 016°15'0 0.0
2019-May-20 07:01N 28°28' W 016°15'1 1.4
2019-May-20 06:30N 28°29' W 016°14'2 4.0
2019-May-20 06:00N 28°28' W 016°12'5 9.7
2019-May-20 05:31N 28°25' W 016°08'510.6
2019-May-20 05:00N 28°28' W 016°02'613.0
2019-May-20 04:31N 28°32' W 015°57'612.9
2019-May-20 04:00N 28°36' W 015°51'712.8
2019-May-20 03:27N 28°39' W 015°44'713.0
2019-May-20 02:54N 28°40' W 015°36'712.7
2019-May-20 02:21N 28°41' W 015°28'512.8
2019-May-20 01:58N 28°41' W 015°22'613.2
2019-May-20 01:29N 28°43' W 015°15'712.7
2019-May-20 00:55N 28°44' W 015°07'512.0
2019-May-20 00:30N 28°43' W 015°02'4913.0
2019-May-19 20:43N 28°48' W 014°06'913.6
2019-May-19 20:04N 28°49' W 013°56'313.5
2019-May-19 19:49N 28°49' W 013°52'413.7
2019-May-19 19:30N 28°48' W 013°47'713.9
2019-May-19 19:00N 28°51' W 013°40'714.1
2019-May-19 18:30N 28°55' W 013°33'4 7.1
2019-May-19 18:00N 28°58' W 013°32'0 0.1
2019-May-19 17:29N 28°58' W 013°32'0 0.0
2019-May-19 17:00N 28°58' W 013°32'0 0.0
2019-May-19 16:30N 28°58' W 013°32'0 0.0
2019-May-19 16:00N 28°58' W 013°32'0 0.0
2019-May-19 15:30N 28°58' W 013°32'0 0.0
2019-May-19 15:00N 28°58' W 013°32'0 0.0
2019-May-19 14:30N 28°58' W 013°32'0 0.0
2019-May-19 14:00N 28°58' W 013°32'0 0.0
2019-May-19 13:29N 28°58' W 013°32'0 0.0
2019-May-19 13:00N 28°58' W 013°32'0 0.0
2019-May-19 12:30N 28°58' W 013°32'0 0.0
2019-May-19 12:00N 28°58' W 013°32'0 0.0
2019-May-19 11:30N 28°58' W 013°32'1 2.4
2019-May-19 11:00N 28°57' W 013°32'4 8.9
2019-May-19 10:30N 28°53' W 013°29'918.6
2019-May-19 10:00N 29°00' W 013°21'918.9
2019-May-19 09:30N 29°07' W 013°14'66019.1
2019-May-17 22:58N 36°18' W 003°20'56018.4
2019-May-16 16:29N 43°06' E 004°58'1019.0
2019-May-16 15:58N 43°14' E 005°07'817.8
2019-May-16 15:30N 43°19' E 005°15'3 0.3
2019-May-16 05:43N 43°21' E 005°19'1 3.8
2019-May-16 05:27N 43°21' E 005°18'4 9.5
2019-May-16 05:00N 43°18' E 005°14'4 8.2
2019-May-16 04:30N 43°14' E 005°15'6813.7
2019-May-15 23:35N 43°03' E 006°46'114.1
2019-May-15 23:30N 43°04' E 006°48'814.1
2019-May-15 22:57N 43°08' E 006°56'614.1
2019-May-15 22:30N 43°12' E 007°03'714.2
2019-May-15 22:00N 43°16' E 007°11'714.1
2019-May-15 21:30N 43°21' E 007°18'714.0
2019-May-15 21:01N 43°25' E 007°26'714.2
2019-May-15 20:31N 43°29' E 007°34'714.7
2019-May-15 20:01N 43°33' E 007°42'714.7
2019-May-15 19:30N 43°37' E 007°51'714.4
2019-May-15 19:00N 43°41' E 007°59'714.3
2019-May-15 18:31N 43°46' E 008°06'714.2
2019-May-15 18:00N 43°51' E 008°14'713.8
2019-May-15 17:30N 43°56' E 008°20'713.8
2019-May-15 17:00N 44°02' E 008°25'713.8
2019-May-15 16:30N 44°08' E 008°29'713.3
2019-May-15 16:00N 44°14' E 008°32'510.0
2019-May-15 15:30N 44°19' E 008°30'1 1.4
2019-May-15 15:00N 44°19' E 008°30'0 0.0
2019-May-15 14:30N 44°19' E 008°30'0 0.0
2019-May-15 14:00N 44°19' E 008°30'0 0.0
2019-May-15 13:30N 44°19' E 008°30'0 0.0
2019-May-15 12:57N 44°19' E 008°30'0 0.0
2019-May-15 12:29N 44°19' E 008°30'0 0.0
2019-May-15 11:59N 44°19' E 008°30'0 0.0
2019-May-15 11:29N 44°19' E 008°30'0 0.0
2019-May-15 10:59N 44°19' E 008°30'0 0.0
2019-May-15 10:28N 44°19' E 008°30'0 0.0
2019-May-15 09:58N 44°19' E 008°30'0 0.0
2019-May-15 09:28N 44°19' E 008°30'0 0.0
2019-May-15 08:58N 44°19' E 008°30'0 0.0
2019-May-15 08:28N 44°19' E 008°30'0 0.0
2019-May-15 08:00N 44°19' E 008°30'0 0.0
2019-May-15 07:30N 44°19' E 008°30'0 0.0
2019-May-15 07:00N 44°19' E 008°30'0 0.0
2019-May-15 06:30N 44°19' E 008°30'0 0.0
2019-May-15 05:59N 44°19' E 008°30'0 0.4
2019-May-15 05:30N 44°19' E 008°30'2 3.9
2019-May-15 05:00N 44°18' E 008°32'816.0
2019-May-15 04:30N 44°11' E 008°38'1019.5
2019-May-15 04:00N 44°03' E 008°45'1020.3
2019-May-15 03:30N 43°55' E 008°53'1121.7
2019-May-15 03:00N 43°45' E 009°01'1121.4
2019-May-15 02:31N 43°36' E 009°09'1121.7
2019-May-15 02:00N 43°27' E 009°17'1121.5
2019-May-15 01:30N 43°18' E 009°25'1121.3
2019-May-15 01:00N 43°09' E 009°33'1121.6
2019-May-15 00:30N 42°59' E 009°39'1020.8
2019-May-15 00:00N 42°51' E 009°47'2421.0
2019-May-14 22:53N 42°38' E 010°14'1121.3
2019-May-14 22:23N 42°31' E 010°25'821.4
2019-May-14 22:00N 42°26' E 010°33'48 2.4
2019-May-14 02:11N 41°39' E 010°19'420.0
2019-May-14 02:00N 41°38' E 010°14'36219.6
2019-May-13 07:33N 38°53' E 003°11'221.0
2019-May-13 07:27N 38°52' E 003°09'26521.1
2019-May-12 18:51N 36°36' W 001°39'1921.1
2019-May-12 17:56N 36°26' W 001°60'1320.8
2019-May-12 17:17N 36°22' W 002°16'1120.5
2019-May-12 16:46N 36°21' W 002°29'413.5
2019-May-12 16:29N 36°21' W 002°34'4 7.9
2019-May-12 16:00N 36°21' W 002°38'1019.8
2019-May-12 15:30N 36°23' W 002°50'1120.5
2019-May-12 14:59N 36°26' W 003°03'1021.0
2019-May-12 14:30N 36°27' W 003°15'23411.7
2019-May-11 18:30N 35°27' W 007°55'1819.1
2019-May-11 17:33N 35°21' W 008°15'116.4
2019-May-11 17:30N 35°21' W 008°16'918.5
2019-May-11 17:00N 35°17' W 008°27'1218.5
2019-May-11 16:21N 35°13' W 008°41'819.1
2019-May-11 15:57N 35°10' W 008°49'1018.8
2019-May-11 15:26N 35°07' W 009°00'818.3
2019-May-11 15:00N 35°04' W 009°10'1018.4
2019-May-11 14:29N 35°01' W 009°20'918.4
2019-May-11 14:01N 34°57' W 009°30'1518.2
2019-May-11 13:12N 34°52' W 009°47'317.9
2019-May-11 13:00N 34°51' W 009°51'1117.6
2019-May-11 12:24N 34°47' W 010°03'3217.5
2019-May-11 10:34N 34°36' W 010°40'117.5
2019-May-11 10:30N 34°35' W 010°41'  

Dump ship's entire track history